Time;durP1;ratioP1;P1;durP2;ratioP2;P2;SDS_P1;SDS_P2;PMS_P1;PMS_P2;Temp;Humidity;BMP_temperature;BMP_pressure;BME280_temperature;BME280_humidity;BME280_pressure;Samples;Min_cycle;Max_cycle;Signal;HPM_P1;HPM_P2
2023/06/11 00:01:14;;;;;;;16.30;6.75;;;;;;;18.04;100.00;98252.53;5060975;28;20059;-95
2023/06/11 00:03:40;;;;;;;20.30;7.53;;;;;;;17.98;100.00;98249.41;5059966;28;20048;-95
2023/06/11 00:06:07;;;;;;;17.30;7.97;;;;;;;17.96;100.00;98251.31;5058689;28;20076;-95
2023/06/11 00:08:32;;;;;;;16.15;7.93;;;;;;;18.09;100.00;98284.53;5057529;28;20041;-96
2023/06/11 00:10:59;;;;;;;17.55;9.10;;;;;;;17.85;100.00;98255.56;5056884;28;20045;-94
2023/06/11 00:13:26;;;;;;;17.38;8.23;;;;;;;17.86;100.00;98256.41;5056231;28;20094;-94
2023/06/11 00:15:52;;;;;;;18.88;7.93;;;;;;;17.94;100.00;98256.78;5055907;28;20044;-96
2023/06/11 00:18:19;;;;;;;17.42;7.43;;;;;;;17.94;100.00;98254.09;5056121;28;20041;-94
2023/06/11 00:20:46;;;;;;;20.02;7.68;;;;;;;17.98;100.00;98252.94;5056470;28;20068;-96
2023/06/11 00:23:12;;;;;;;17.83;8.13;;;;;;;18.08;100.00;98273.84;5056173;28;20041;-94
2023/06/11 00:25:38;;;;;;;15.90;7.05;;;;;;;17.96;100.00;98251.31;5056816;28;20143;-94
2023/06/11 00:28:04;;;;;;;20.55;7.78;;;;;;;17.94;100.00;98245.19;5056838;28;20045;-94
2023/06/11 00:30:31;;;;;;;17.55;8.13;;;;;;;17.93;100.00;98248.81;5056131;28;20041;-96
2023/06/11 00:32:57;;;;;;;14.55;8.05;;;;;;;18.02;100.00;98267.91;5055577;28;20045;-95
2023/06/11 00:35:24;;;;;;;16.40;7.43;;;;;;;17.93;100.00;98246.97;5055720;28;20041;-95
2023/06/11 00:37:50;;;;;;;15.27;7.57;;;;;;;17.88;100.00;98245.56;5055143;28;20044;-95
2023/06/11 00:40:16;;;;;;;20.88;7.97;;;;;;;17.86;100.00;98249.22;5055709;28;20502;-95
2023/06/11 00:42:43;;;;;;;20.05;8.07;;;;;;;17.83;100.00;98256.63;5054493;28;20041;-95
2023/06/11 00:45:09;;;;;;;19.45;8.55;;;;;;;17.98;100.00;98285.22;5055564;28;20050;-95
2023/06/11 00:47:36;;;;;;;17.02;8.30;;;;;;;18.01;100.00;98278.78;5055442;28;20052;-94
2023/06/11 00:50:04;;;;;;;17.42;8.63;;;;;;;17.81;100.00;98256.69;5054874;28;20143;-95
2023/06/11 00:52:32;;;;;;;21.33;8.43;;;;;;;17.81;100.00;98258.53;5055229;28;20037;-95
2023/06/11 00:54:58;;;;;;;23.35;8.32;;;;;;;17.78;100.00;98256.00;5055343;28;20056;-94
2023/06/11 00:57:24;;;;;;;20.27;8.13;;;;;;;17.84;100.00;98272.66;5055887;28;20049;-95
2023/06/11 00:59:51;;;;;;;20.92;7.75;;;;;;;17.75;100.00;98250.84;5058099;28;20041;-95
2023/06/11 01:02:23;;;;;;;19.77;8.35;;;;;;;17.76;100.00;98257.94;5058531;28;20045;-92
2023/06/11 01:04:53;;;;;;;16.90;7.55;;;;;;;17.71;100.00;98258.25;5057264;28;20045;-94
2023/06/11 01:07:19;;;;;;;15.25;8.10;;;;;;;17.70;100.00;98243.09;5056847;28;20162;-94
2023/06/11 01:09:46;;;;;;;14.85;7.32;;;;;;;17.65;100.00;98237.13;5055756;28;20045;-94
2023/06/11 01:12:12;;;;;;;13.68;6.85;;;;;;;17.73;100.00;98237.50;5055717;28;20429;-95
2023/06/11 01:14:39;;;;;;;20.77;7.80;;;;;;;17.81;100.00;98258.53;5057011;28;20049;-95
2023/06/11 01:17:09;;;;;;;12.80;7.28;;;;;;;17.79;100.00;98261.31;5055349;28;20148;-95
2023/06/11 01:19:55;;;;;;;14.50;6.93;;;;;;;17.66;100.00;98245.09;5055127;28;20494;-95
2023/06/11 01:22:29;;;;;;;20.27;7.18;;;;;;;17.82;100.00;98269.19;5054520;28;20095;-94
2023/06/11 01:25:15;;;;;;;16.23;7.55;;;;;;;17.72;100.00;98249.22;5055384;28;20049;-94
2023/06/11 01:27:58;;;;;;;14.77;7.30;;;;;;;17.74;100.00;98257.16;5056328;28;20041;-94
2023/06/11 01:30:25;;;;;;;17.70;7.18;;;;;;;17.88;100.00;98283.22;5055343;28;20072;-95
2023/06/11 01:32:53;;;;;;;15.65;7.45;;;;;;;17.77;100.00;98262.38;5055588;28;20077;-94
2023/06/11 01:35:19;;;;;;;19.00;8.40;;;;;;;17.84;100.00;98261.88;5054635;28;20053;-95
2023/06/11 01:37:45;;;;;;;13.90;7.28;;;;;;;17.92;100.00;98274.84;5054321;28;20049;-94
2023/06/11 01:40:13;;;;;;;17.98;7.40;;;;;;;17.86;100.00;98257.28;5054165;28;20044;-94
2023/06/11 01:42:39;;;;;;;15.60;7.10;;;;;;;17.91;100.00;98259.66;5053706;28;20045;-94
2023/06/11 01:45:08;;;;;;;15.07;7.07;;;;;;;17.73;100.00;98240.19;5053911;28;20391;-94
2023/06/11 01:47:34;;;;;;;16.70;8.00;;;;;;;17.92;100.00;98260.56;5054018;28;20467;-96
2023/06/11 01:50:00;;;;;;;18.23;7.30;;;;;;;17.83;100.00;98249.41;5053974;28;20081;-94
2023/06/11 01:52:26;;;;;;;17.08;7.10;;;;;;;17.91;100.00;98253.44;5053851;28;20072;-94
2023/06/11 01:54:52;;;;;;;19.85;7.78;;;;;;;17.78;100.00;98234.50;5057233;28;20042;-93
2023/06/11 01:57:18;;;;;;;15.63;7.07;;;;;;;17.83;100.00;98240.50;5057596;28;20056;-94
2023/06/11 01:59:44;;;;;;;13.50;6.80;;;;;;;17.74;100.00;98233.84;5058291;28;20135;-94
2023/06/11 02:02:12;;;;;;;19.98;7.85;;;;;;;17.93;100.00;98265.81;5056968;28;20072;-94
2023/06/11 02:04:38;;;;;;;18.65;8.15;;;;;;;17.93;100.00;98264.94;5058027;28;20509;-94
2023/06/11 02:07:04;;;;;;;16.85;7.00;;;;;;;17.66;100.00;98242.41;5058063;28;20148;-93
2023/06/11 02:09:30;;;;;;;16.45;7.57;;;;;;;17.64;100.00;98247.00;5057659;28;20128;-95
2023/06/11 02:11:56;;;;;;;14.80;7.43;;;;;;;17.74;100.00;98263.44;5057328;28;20399;-94
2023/06/11 02:14:21;;;;;;;20.45;8.90;;;;;;;17.60;100.00;98247.31;5057421;28;20582;-94
2023/06/11 02:16:47;;;;;;;17.30;8.15;;;;;;;17.56;100.00;98243.94;5057403;28;20045;-94
2023/06/11 02:19:15;;;;;;;14.40;7.88;;;;;;;17.73;100.00;98269.75;5057324;28;20048;-95
2023/06/11 02:21:41;;;;;;;17.50;7.93;;;;;;;17.71;100.00;98271.69;5057070;28;20582;-93
2023/06/11 02:24:07;;;;;;;18.90;8.10;;;;;;;17.61;100.00;98249.06;5057008;28;20135;-94
2023/06/11 02:26:33;;;;;;;17.77;7.90;;;;;;;17.77;100.00;98268.59;5056886;28;20049;-94
2023/06/11 02:28:58;;;;;;;13.35;7.32;;;;;;;17.66;100.00;98249.63;5056722;28;20075;-93
2023/06/11 02:31:24;;;;;;;19.35;7.72;;;;;;;17.73;100.00;98261.69;5057184;28;20079;-93
2023/06/11 02:33:50;;;;;;;12.68;7.53;;;;;;;17.60;100.00;98239.25;5056792;28;20067;-94
2023/06/11 02:36:17;;;;;;;16.48;7.35;;;;;;;17.59;100.00;98238.38;5056718;28;20517;-94
2023/06/11 02:38:43;;;;;;;18.23;7.63;;;;;;;17.59;100.00;98237.53;5056056;28;20053;-93
2023/06/11 02:41:09;;;;;;;14.80;7.70;;;;;;;17.54;100.00;98242.31;5056900;28;20395;-95
2023/06/11 02:43:35;;;;;;;14.75;6.70;;;;;;;17.73;100.00;98259.00;5056487;28;20037;-94
2023/06/11 02:46:01;;;;;;;20.85;7.43;;;;;;;17.72;100.00;98248.34;5056537;28;20045;-94
2023/06/11 02:48:27;;;;;;;18.15;8.20;;;;;;;17.73;100.00;98261.69;5057003;28;20045;-94
2023/06/11 02:50:53;;;;;;;19.45;7.68;;;;;;;17.55;100.00;98227.94;5056355;28;20045;-94
2023/06/11 02:53:20;;;;;;;16.35;6.95;;;;;;;17.56;100.00;98237.72;5056567;28;20495;-93
2023/06/11 02:55:46;;;;;;;19.15;7.50;;;;;;;17.60;100.00;98240.09;5056538;28;20045;-95
2023/06/11 02:58:12;;;;;;;15.05;7.95;;;;;;;17.72;100.00;98265.34;5056253;28;20055;-95
2023/06/11 03:00:38;;;;;;;16.33;7.60;;;;;;;17.64;100.00;98249.69;5056534;28;20041;-93
2023/06/11 03:03:04;;;;;;;17.00;7.63;;;;;;;17.66;100.00;98247.78;5055936;28;20447;-94
2023/06/11 03:05:30;;;;;;;17.38;7.72;;;;;;;17.72;100.00;98257.28;5055462;28;20045;-94
2023/06/11 03:07:56;;;;;;;18.08;7.72;;;;;;;17.74;100.00;98247.31;5056223;28;20549;-93
2023/06/11 03:10:27;;;;;;;16.15;8.18;;;;;;;17.60;100.00;98223.13;5056204;28;20521;-94
2023/06/11 03:12:53;;;;;;;19.85;7.75;;;;;;;17.67;100.00;98245.94;5056306;28;20065;-94
2023/06/11 03:15:19;;;;;;;19.55;7.50;;;;;;;17.58;100.00;98231.28;5056339;28;20044;-94
2023/06/11 03:17:45;;;;;;;18.40;7.80;;;;;;;17.60;100.00;98239.25;5055770;28;20044;-95
2023/06/11 03:20:11;;;;;;;16.13;8.07;;;;;;;17.54;100.00;98226.19;5056686;28;20070;-95
2023/06/11 03:22:37;;;;;;;20.60;8.00;;;;;;;17.53;100.00;98232.56;5057451;28;20041;-95
2023/06/11 03:25:04;;;;;;;15.05;7.45;;;;;;;17.48;100.00;98227.47;5056758;28;20552;-95
2023/06/11 03:27:32;;;;;;;17.88;7.50;;;;;;;17.63;100.00;98255.16;5056653;28;20098;-94
2023/06/11 03:29:58;;;;;;;16.73;7.75;;;;;;;17.46;100.00;98237.47;5056902;28;20118;-94
2023/06/11 03:32:23;;;;;;;16.38;7.97;;;;;;;17.44;100.00;98248.28;5057697;28;20045;-95
2023/06/11 03:34:51;;;;;;;15.60;8.60;;;;;;;17.49;100.00;98248.00;5056717;28;20525;-96
2023/06/11 03:37:17;;;;;;;18.58;7.75;;;;;;;17.48;100.00;98261.53;5056639;28;20056;-95
2023/06/11 03:39:43;;;;;;;15.80;7.90;;;;;;;17.42;100.00;98249.34;5056367;28;20056;-95
2023/06/11 03:42:09;;;;;;;22.55;8.45;;;;;;;17.41;100.00;98251.19;5056414;28;20049;-95
2023/06/11 03:44:37;;;;;;;16.33;7.50;;;;;;;17.52;100.00;98276.50;5056825;28;20076;-95
2023/06/11 03:47:03;;;;;;;19.98;8.55;;;;;;;17.40;100.00;98249.44;5056572;28;20045;-95
2023/06/11 03:49:29;;;;;;;17.77;8.60;;;;;;;17.45;100.00;98254.53;5056641;28;20048;-96
2023/06/11 03:51:55;;;;;;;17.98;8.45;;;;;;;17.63;100.00;98282.94;5055629;28;20049;-95
2023/06/11 03:54:22;;;;;;;21.27;9.43;;;;;;;17.52;100.00;98268.44;5055955;28;20037;-92
2023/06/11 03:56:47;;;;;;;18.90;8.52;;;;;;;17.47;100.00;98263.34;5055736;28;20053;-94
2023/06/11 03:59:13;;;;;;;18.75;8.15;;;;;;;17.62;100.00;98272.28;5055739;28;20049;-95
2023/06/11 04:01:41;;;;;;;21.40;8.05;;;;;;;17.57;100.00;98252.91;5055919;28;20041;-95
2023/06/11 04:04:07;;;;;;;16.35;8.55;;;;;;;17.77;100.00;98279.38;5055938;28;20072;-95
2023/06/11 04:06:36;;;;;;;18.38;8.57;;;;;;;17.63;100.00;98253.38;5055203;28;20130;-94
2023/06/11 04:09:02;;;;;;;15.63;8.25;;;;;;;17.67;100.00;98251.31;5056379;28;20083;-96
2023/06/11 04:11:28;;;;;;;21.73;8.57;;;;;;;17.75;100.00;98253.53;5055977;28;20053;-94
2023/06/11 04:13:54;;;;;;;20.27;8.18;;;;;;;17.84;100.00;98253.81;5055915;28;20110;-95
2023/06/11 04:16:20;;;;;;;17.25;8.70;;;;;;;18.10;100.00;98274.63;5056240;28;20502;-95
2023/06/11 04:18:48;;;;;;;18.88;8.07;;;;;;;18.06;100.00;98260.50;5056034;28;20055;-95
2023/06/11 04:21:14;;;;;;;14.35;7.38;;;;;;;18.09;100.00;98243.31;5055906;28;20049;-96
2023/06/11 04:23:40;;;;;;;17.00;7.85;;;;;;;18.16;100.00;98261.63;5055987;28;20453;-96
2023/06/11 04:26:07;;;;;;;21.15;8.55;;;;;;;18.19;100.00;98264.09;5058063;28;20075;-95
2023/06/11 04:28:35;;;;;;;19.30;7.40;;;;;;;18.36;100.00;98280.97;5056271;28;20041;-96
2023/06/11 04:31:01;;;;;;;13.27;7.65;;;;;;;18.21;100.00;98264.84;5056873;28;20513;-95
2023/06/11 04:33:32;;;;;;;14.10;8.00;;;;;;;18.24;100.00;98259.28;5055824;28;20041;-95
2023/06/11 04:36:01;;;;;;;15.57;6.93;;;;;;;18.36;100.00;98273.75;5055641;28;20060;-95
2023/06/11 04:38:28;;;;;;;13.52;7.47;;;;;;;18.44;100.00;98289.41;5055658;28;20051;-95
2023/06/11 04:40:54;;;;;;;17.48;7.75;;;;;;;18.31;100.00;98289.34;5056630;28;20041;-95
2023/06/11 04:43:23;;;;;;;15.48;7.63;;;;;;;18.12;100.00;98257.41;5055740;28;20098;-94
2023/06/11 04:45:49;;;;;;;16.92;8.55;;;;;;;18.06;100.00;98263.19;5055191;28;20099;-95
2023/06/11 04:48:20;;;;;;;16.88;7.85;;;;;;;18.12;100.00;98270.84;5055050;28;20045;-93
2023/06/11 04:50:48;;;;;;;14.38;7.80;;;;;;;18.32;100.00;98269.53;5054762;28;20040;-95
2023/06/11 04:53:21;;;;;;;22.77;8.00;;;;;;;18.73;100.00;98260.47;5056208;28;20131;-93
2023/06/11 04:55:49;;;;;;;13.77;7.50;;;;;;;19.26;100.00;98255.06;5055445;28;20494;-94
2023/06/11 04:58:15;;;;;;;16.60;7.57;;;;;;;19.70;100.00;98242.94;5056709;28;20063;-94
2023/06/11 05:00:42;;;;;;;13.23;7.15;;;;;;;20.31;100.00;98251.88;5055444;28;20041;-92
2023/06/11 05:03:08;;;;;;;16.23;6.97;;;;;;;20.51;100.00;98255.81;5056150;28;20041;-95
2023/06/11 05:05:34;;;;;;;16.42;7.40;;;;;;;19.72;100.00;98250.94;5055271;28;20103;-93
2023/06/11 05:08:01;;;;;;;16.73;7.60;;;;;;;19.21;100.00;98246.44;5056099;28;20495;-95
2023/06/11 05:10:28;;;;;;;16.50;7.45;;;;;;;19.17;100.00;98250.31;5055770;28;20041;-94
2023/06/11 05:12:54;;;;;;;15.23;7.82;;;;;;;19.13;100.00;98254.19;5056250;28;20045;-96
2023/06/11 05:15:20;;;;;;;16.08;7.97;;;;;;;19.35;100.00;98243.63;5054337;28;20049;-96
2023/06/11 05:17:46;;;;;;;15.95;7.75;;;;;;;18.76;100.00;98246.81;5055040;28;20045;-93
2023/06/11 05:20:13;;;;;;;15.73;8.25;;;;;;;19.01;100.00;98255.91;5053960;28;20140;-94
2023/06/11 05:22:39;;;;;;;24.60;8.85;;;;;;;19.16;100.00;98270.16;5054678;28;20387;-95
2023/06/11 05:25:06;;;;;;;20.27;7.43;;;;;;;19.12;100.00;98245.25;5055228;28;20147;-94
2023/06/11 05:27:33;;;;;;;13.45;7.45;;;;;;;19.67;100.00;98243.16;5054915;28;20045;-94
2023/06/11 05:29:59;;;;;;;13.82;7.80;;;;;;;20.52;100.00;98262.06;5057409;28;20048;-96
2023/06/11 05:32:25;;;;;;;15.18;8.50;;;;;;;20.94;100.00;98251.66;5057608;28;20044;-94
2023/06/11 05:34:51;;;;;;;13.02;7.25;;;;;;;21.36;100.00;98257.38;5057575;28;20045;-94
2023/06/11 05:37:17;;;;;;;12.93;7.68;;;;;;;21.48;100.00;98259.13;5057486;28;20620;-95
2023/06/11 05:39:43;;;;;;;21.75;7.85;;;;;;;21.24;100.00;98253.78;5057433;28;20095;-95
2023/06/11 05:42:10;;;;;;;14.35;6.72;;;;;;;21.36;100.00;98253.81;5057193;28;20101;-94
2023/06/11 05:44:37;;;;;;;15.90;7.20;;;;;;;21.66;100.00;98275.72;5057660;28;20037;-95
2023/06/11 05:47:03;;;;;;;11.18;6.85;;;;;;;21.74;100.00;98265.16;5058627;28;20107;-94
2023/06/11 05:49:30;;;;;;;13.57;6.80;;;;;;;22.03;100.00;98266.47;5057869;28;20492;-93
2023/06/11 05:51:56;;;;;;;11.95;6.38;;;;;;;22.24;100.00;98267.44;5057919;28;20045;-94
2023/06/11 05:54:22;;;;;;;14.45;6.43;;;;;;;22.32;100.00;98255.97;5057699;28;20143;-96
2023/06/11 05:56:48;;;;;;;12.35;6.60;;;;;;;22.35;100.00;98267.38;5056899;28;20049;-96
2023/06/11 05:59:14;;;;;;;12.70;6.68;;;;;;;22.12;100.00;98246.75;5057834;28;20426;-96
2023/06/11 06:01:45;;;;;;;11.68;7.03;;;;;;;22.34;100.00;98254.84;5057487;28;20098;-93
2023/06/11 06:04:12;;;;;;;15.63;6.35;;;;;;;22.66;100.00;98272.09;5057989;28;20045;-94
2023/06/11 06:06:39;;;;;;;12.55;6.43;;;;;;;22.66;100.00;98288.34;5057310;28;20045;-95
2023/06/11 06:09:05;;;;;;;11.35;6.60;;;;;;;22.45;100.00;98274.78;5057201;28;20517;-93
2023/06/11 06:11:31;;;;;;;15.27;6.82;;;;;;;22.72;100.00;98282.41;5057114;28;20045;-94
2023/06/11 06:13:57;;;;;;;12.23;6.60;;;;;;;22.92;100.00;98287.00;5057445;28;20044;-95
2023/06/11 06:16:23;;;;;;;11.07;6.80;;;;;;;22.96;100.00;98258.59;5057597;28;20044;-94
2023/06/11 06:18:50;;;;;;;9.95;5.68;;;;;;;23.05;100.00;98264.28;5061192;28;20049;-94
2023/06/11 06:21:16;;;;;;;11.35;5.93;;;;;;;21.95;100.00;98248.16;5061135;28;20502;-94
2023/06/11 06:23:42;;;;;;;11.32;6.80;;;;;;;22.22;100.00;98282.94;5061435;28;20050;-93
2023/06/11 06:26:08;;;;;;;12.30;6.53;;;;;;;22.20;100.00;98265.06;5062119;28;20415;-94
2023/06/11 06:28:35;;;;;;;10.85;6.18;;;;;;;22.39;100.00;98267.16;5062654;28;20102;-94
2023/06/11 06:31:02;;;;;;;12.15;6.68;;;;;;;22.76;100.00;98278.44;5061861;28;20044;-93
2023/06/11 06:33:30;;;;;;;11.40;6.47;;;;;;;22.80;100.00;98249.25;5060969;28;20043;-94
2023/06/11 06:35:57;;;;;;;10.70;5.75;;;;;;;22.60;100.00;98259.03;5060765;28;20037;-90
2023/06/11 06:38:23;;;;;;;12.18;6.53;;;;;;;22.60;100.00;98267.19;5057650;28;20049;-93
2023/06/11 06:40:49;;;;;;;12.68;5.85;;;;;;;22.67;100.00;98250.28;5058926;28;20043;-93
2023/06/11 06:43:15;;;;;;;11.07;5.72;;;;;;;22.75;100.00;98272.19;5057144;28;20064;-94
2023/06/11 06:45:41;;;;;;;15.77;7.53;;;;;;;21.91;100.00;98257.50;5056576;28;20048;-94
2023/06/11 06:48:07;;;;;;;11.45;6.30;;;;;;;22.20;100.00;98278.63;5057550;28;20037;-95
2023/06/11 06:50:32;;;;;;;13.73;6.05;;;;;;;22.40;100.00;98260.72;5056664;28;20048;-94
2023/06/11 06:53:00;;;;;;;13.52;6.05;;;;;;;22.73;100.00;98281.44;5056502;28;20452;-95
2023/06/11 06:55:26;;;;;;;12.68;5.63;;;;;;;23.06;100.00;98279.56;5058216;28;20036;-94
2023/06/11 06:57:51;;;;;;;9.13;5.60;;;;;;;23.06;100.00;98266.00;5057552;28;20048;-93
2023/06/11 07:00:18;;;;;;;11.15;5.30;;;;;;;22.69;100.00;98283.53;5056891;28;20041;-94
2023/06/11 07:02:45;;;;;;;10.75;5.60;;;;;;;22.78;100.00;98281.91;5056418;28;20041;-93
2023/06/11 07:05:12;;;;;;;12.10;6.95;;;;;;;22.44;100.00;98273.88;5088157;28;20039;-92
2023/06/11 07:07:38;;;;;;;10.25;5.80;;;;;;;22.22;100.00;98253.16;5055919;28;20120;-92
2023/06/11 07:10:06;;;;;;;13.63;5.03;;;;;;;22.49;100.00;98279.81;5055643;28;20140;-94
2023/06/11 07:12:33;;;;;;;10.20;5.95;;;;;;;22.63;100.00;98284.06;5055570;28;20140;-93
2023/06/11 07:14:59;;;;;;;11.18;5.50;;;;;;;22.46;100.00;98268.34;5056309;28;20391;-93
2023/06/11 07:17:25;;;;;;;10.82;5.90;;;;;;;22.60;100.00;98273.47;5055702;28;20045;-93
2023/06/11 07:19:52;;;;;;;12.82;6.10;;;;;;;22.78;100.00;98284.59;5055985;28;20059;-93
2023/06/11 07:22:18;;;;;;;11.45;5.70;;;;;;;22.83;100.00;98284.22;5056084;28;20044;-92
2023/06/11 07:24:47;;;;;;;13.38;6.10;;;;;;;23.05;100.00;98269.69;5060355;28;20041;-91
2023/06/11 07:27:14;;;;;;;;;;;;;;;23.51;100.00;98282.84;5056475;28;20052;-92
2023/06/11 07:29:40;;;;;;;11.63;6.05;;;;;;;23.72;100.00;98269.19;5058471;28;19920;-93
2023/06/11 07:32:07;;;;;;;8.65;5.30;;;;;;;23.83;100.00;98251.97;5059085;28;20033;-93
2023/06/11 07:34:33;;;;;;;9.60;5.35;;;;;;;24.08;93.82;98257.94;5060694;28;20068;-94
2023/06/11 07:36:59;;;;;;;9.50;5.32;;;;;;;24.26;93.57;98250.78;5061132;28;20045;-93
2023/06/11 07:39:25;;;;;;;10.25;5.40;;;;;;;24.40;94.08;98263.97;5060238;28;20057;-93
2023/06/11 07:41:51;;;;;;;11.73;4.93;;;;;;;24.50;94.30;98261.28;5060611;28;20037;-94
2023/06/11 07:44:18;;;;;;;9.60;5.50;;;;;;;23.70;95.66;98246.78;5061366;28;20048;-94
2023/06/11 07:46:44;;;;;;;10.90;5.70;;;;;;;23.60;99.98;98242.31;5061586;28;20041;-94
2023/06/11 07:49:10;;;;;;;8.23;5.00;;;;;;;24.12;96.31;98264.81;5061495;28;20044;-93
2023/06/11 07:51:36;;;;;;;9.98;5.53;;;;;;;24.27;96.30;98259.84;5061617;28;20135;-94
2023/06/11 07:54:04;;;;;;;9.35;5.50;;;;;;;24.56;97.07;98265.31;5061342;28;20072;-94
2023/06/11 07:56:30;;;;;;;11.38;5.18;;;;;;;24.58;91.34;98245.13;5061943;28;20060;-93
2023/06/11 07:58:57;;;;;;;7.07;4.40;;;;;;;24.69;87.80;98244.13;5061627;28;20490;-95
2023/06/11 08:01:24;;;;;;;8.65;4.95;;;;;;;24.60;88.41;98237.69;5062526;28;20130;-94
2023/06/11 08:03:50;;;;;;;8.35;4.57;;;;;;;24.53;86.29;98261.03;5062346;28;20068;-96
2023/06/11 08:06:17;;;;;;;10.05;4.65;;;;;;;24.05;89.20;98250.03;5063677;28;20055;-95
2023/06/11 08:08:43;;;;;;;8.48;4.47;;;;;;;24.28;87.85;98239.78;5062954;28;20076;-95
2023/06/11 08:14:36;;;;;;;12.50;5.35;;;;;;;24.39;85.06;98245.09;5064933;28;20487;-93
2023/06/11 08:17:04;;;;;;;11.82;5.32;;;;;;;24.63;84.45;98246.56;5065077;28;20048;-94
2023/06/11 08:19:30;;;;;;;8.48;5.50;;;;;;;25.04;84.40;98249.97;5064996;28;20076;-94
2023/06/11 08:21:56;;;;;;;8.82;5.28;;;;;;;25.02;81.57;98250.09;5065694;28;20045;-95
2023/06/11 08:24:22;;;;;;;11.18;5.88;;;;;;;24.98;81.75;98259.56;5066075;28;20041;-94
2023/06/11 08:26:48;;;;;;;10.93;5.70;;;;;;;24.93;80.23;98253.72;5063123;28;20044;-94
2023/06/11 08:29:15;;;;;;;7.57;5.00;;;;;;;24.81;83.04;98244.84;5061085;28;20061;-95
2023/06/11 08:31:41;;;;;;;10.02;5.93;;;;;;;24.89;82.79;98266.72;5062345;28;20048;-94
2023/06/11 08:34:08;;;;;;;9.55;5.35;;;;;;;25.47;82.39;98259.50;5060071;28;20495;-93
2023/06/11 08:36:34;;;;;;;10.57;5.80;;;;;;;25.55;81.26;98257.75;5054946;28;20045;-91
2023/06/11 08:39:00;;;;;;;12.20;5.72;;;;;;;25.89;79.36;98235.38;5061815;28;20380;-94
2023/06/11 08:41:28;;;;;;;9.25;5.53;;;;;;;26.16;77.23;98231.81;5065378;28;20071;-94
2023/06/11 08:43:56;;;;;;;12.52;5.25;;;;;;;25.49;80.10;98233.84;5064891;28;20037;-94
2023/06/11 08:46:25;;;;;;;12.38;5.50;;;;;;;25.41;83.23;98255.50;5065473;28;20045;-94
2023/06/11 08:55:45;;;;;;;9.63;5.50;;;;;;;25.91;82.68;98244.28;5041931;28;20040;-93
2023/06/11 08:58:12;;;;;;;9.82;5.65;;;;;;;25.38;82.89;98253.09;5036147;28;20064;-96
2023/06/11 09:00:38;;;;;;;11.43;6.18;;;;;;;23.82;86.91;98230.41;5043913;28;20046;-95
2023/06/11 09:03:05;;;;;;;9.95;5.93;;;;;;;24.22;87.11;98243.06;5045259;28;20037;-93
2023/06/11 09:05:31;;;;;;;14.23;6.13;;;;;;;24.13;91.42;98233.91;5044791;28;20049;-94
2023/06/11 09:07:57;;;;;;;9.20;5.45;;;;;;;23.93;88.43;98233.88;5045890;28;20052;-93
2023/06/11 09:10:23;;;;;;;11.88;6.35;;;;;;;24.35;87.90;98236.38;5046386;28;20132;-93
2023/06/11 09:12:51;;;;;;;11.45;6.07;;;;;;;24.83;82.75;98261.00;5043750;28;20052;-94
2023/06/11 09:15:18;;;;;;;11.20;6.63;;;;;;;24.72;81.92;98243.88;5042104;28;20076;-93
2023/06/11 09:17:46;;;;;;;12.13;6.35;;;;;;;25.23;84.51;98235.50;5040293;28;20046;-96
2023/06/11 09:20:14;;;;;;;11.00;6.10;;;;;;;25.34;83.00;98255.22;5038415;28;20037;-92
2023/06/11 09:22:42;;;;;;;11.35;6.20;;;;;;;25.51;80.01;98241.88;5036698;28;20041;-93
2023/06/11 09:25:10;;;;;;;10.25;5.25;;;;;;;26.03;79.95;98248.53;5035795;28;20121;-93
2023/06/11 09:27:36;;;;;;;10.27;5.63;;;;;;;26.43;77.56;98268.19;5035602;28;20510;-94
2023/06/11 09:30:12;;;;;;;10.23;5.85;;;;;;;26.73;76.57;98252.50;5032392;28;20060;-91
2023/06/11 09:32:39;;;;;;;9.13;5.43;;;;;;;26.91;72.28;98258.78;5035368;28;20042;-94
2023/06/11 09:35:06;;;;;;;12.13;5.45;;;;;;;26.78;73.33;98258.34;5037634;28;20057;-94
2023/06/11 09:37:38;;;;;;;10.13;6.15;;;;;;;25.34;74.98;98244.34;5041213;28;20041;-95
2023/06/11 09:40:06;;;;;;;9.57;5.60;;;;;;;26.03;70.54;98256.69;5041615;28;20049;-91
2023/06/11 09:42:37;;;;;;;11.02;5.40;;;;;;;26.32;71.45;98252.91;5036563;28;20068;-93
2023/06/11 09:45:03;;;;;;;9.23;5.60;;;;;;;26.69;71.95;98260.13;5036881;28;20041;-96
2023/06/11 09:47:31;;;;;;;10.43;6.53;;;;;;;27.05;73.66;98257.38;5039135;28;20081;-94
2023/06/11 09:49:58;;;;;;;9.93;6.22;;;;;;;27.10;70.94;98214.09;5038195;28;20056;-95
2023/06/11 09:52:29;;;;;;;9.38;6.18;;;;;;;26.73;63.79;98257.97;5035142;28;20045;-92
2023/06/11 09:54:55;;;;;;;9.50;5.63;;;;;;;26.97;62.12;98230.03;5035065;28;20088;-94
2023/06/11 09:57:24;;;;;;;11.32;6.32;;;;;;;27.21;60.86;98229.34;5033404;28;20049;-94
2023/06/11 09:59:50;;;;;;;8.93;5.75;;;;;;;27.49;58.42;98230.06;5034243;28;20045;-95
2023/06/11 10:02:16;;;;;;;8.93;6.05;;;;;;;26.84;62.96;98247.66;5035530;28;20038;-94
2023/06/11 10:04:44;;;;;;;8.27;6.10;;;;;;;26.65;61.51;98245.09;5053248;28;20380;-96
2023/06/11 10:07:11;;;;;;;8.10;5.35;;;;;;;26.25;62.72;98216.41;5038805;28;20045;-95
2023/06/11 10:09:39;;;;;;;9.77;6.28;;;;;;;25.76;61.48;98238.47;5053680;28;20029;-95
2023/06/11 10:12:06;;;;;;;11.57;5.72;;;;;;;26.06;61.96;98222.81;5038694;28;20086;-93
2023/06/11 10:14:33;;;;;;;10.07;5.90;;;;;;;25.97;60.28;98215.56;5042629;28;20476;-95
2023/06/11 10:17:02;;;;;;;7.90;5.57;;;;;;;26.54;59.18;98234.41;5042279;28;20056;-94
2023/06/11 10:19:34;;;;;;;14.32;7.60;;;;;;;27.04;59.34;98236.56;5042625;28;20069;-94
2023/06/11 10:22:02;;;;;;;12.00;6.38;;;;;;;27.22;58.45;98209.28;5041259;28;20052;-96
2023/06/11 10:24:28;;;;;;;9.73;5.90;;;;;;;27.26;57.41;98224.31;5037981;28;20071;-93
2023/06/11 10:27:07;;;;;;;9.05;6.10;;;;;;;27.66;53.99;98215.47;5054851;28;20426;-95
2023/06/11 10:29:37;;;;;;;8.60;5.97;;;;;;;28.02;53.68;98215.31;5041909;28;20092;-95
2023/06/11 10:32:13;;;;;;;10.60;6.35;;;;;;;27.77;53.13;98232.59;5058129;28;20462;-93
2023/06/11 10:34:40;;;;;;;10.38;6.05;;;;;;;28.23;54.48;98212.09;5043154;28;20038;-91
2023/06/11 10:37:09;;;;;;;9.80;5.72;;;;;;;28.67;49.84;98217.34;5042377;28;20088;-95
2023/06/11 10:39:35;;;;;;;9.32;6.05;;;;;;;28.54;52.96;98217.00;5042259;28;20064;-95
2023/06/11 10:42:02;;;;;;;9.85;6.10;;;;;;;27.85;54.40;98230.78;5040159;28;20046;-95
2023/06/11 10:44:29;;;;;;;8.38;5.60;;;;;;;28.26;51.54;98216.41;5044445;28;20048;-95
2023/06/11 10:46:59;;;;;;;8.88;5.90;;;;;;;27.35;51.79;98225.22;5042781;28;20046;-94
2023/06/11 10:49:26;;;;;;;12.85;7.35;;;;;;;27.55;52.61;98196.63;5046403;28;20117;-95
2023/06/11 10:51:53;;;;;;;13.52;9.05;;;;;;;27.49;52.42;98210.09;5046294;28;20148;-94
2023/06/11 10:54:25;;;;;;;8.75;6.15;;;;;;;28.03;51.55;98213.44;5047773;28;20049;-94
2023/06/11 10:56:52;;;;;;;10.80;5.55;;;;;;;27.89;51.90;98200.38;5047887;28;20053;-95
2023/06/11 10:59:20;;;;;;;9.80;5.45;;;;;;;27.65;53.23;98205.56;5048161;28;20049;-96
2023/06/11 11:01:46;;;;;;;8.70;5.95;;;;;;;26.80;56.00;98226.31;5046542;28;20049;-95
2023/06/11 11:04:12;;;;;;;9.23;5.93;;;;;;;26.01;58.32;98217.00;5046922;28;20045;-95
2023/06/11 11:06:39;;;;;;;9.85;6.10;;;;;;;26.12;59.27;98229.53;5046629;28;20113;-95
2023/06/11 11:09:05;;;;;;;10.70;6.13;;;;;;;25.83;61.41;98225.09;5062185;28;20140;-96
2023/06/11 11:11:33;;;;;;;9.57;6.03;;;;;;;26.11;58.50;98219.63;5045752;28;20065;-95
2023/06/11 11:13:59;;;;;;;8.73;6.07;;;;;;;26.30;57.79;98227.69;5044648;28;20471;-96
2023/06/11 11:16:25;;;;;;;12.38;6.55;;;;;;;25.77;58.39;98198.47;5043785;28;20041;-95
2023/06/11 11:18:52;;;;;;;10.00;6.50;;;;;;;25.78;59.07;98205.59;5044977;28;20046;-95
2023/06/11 11:21:18;;;;;;;10.93;6.63;;;;;;;25.98;56.51;98188.19;5044115;28;20050;-96
2023/06/11 11:23:46;;;;;;;9.10;6.15;;;;;;;26.94;54.58;98181.25;5045623;28;20044;-95
2023/06/11 11:26:12;;;;;;;10.75;7.07;;;;;;;26.90;54.32;98194.34;5042962;28;20052;-96
2023/06/11 11:28:40;;;;;;;8.93;5.90;;;;;;;27.28;54.62;98197.69;5042799;28;20050;-95
2023/06/11 11:31:12;;;;;;;9.40;6.20;;;;;;;27.25;51.32;98185.22;5043551;28;20041;-95